Time,TemperatureF,DewpointF,PressureIn,WindDirection,WindDirectionDegrees,WindSpeedMPH,WindSpeedGustMPH,Humidity,HourlyPrecipIn,Conditions,Clouds,dailyrainin,SoftwareType,DateUTC
2013-06-17 00:01:00,73.6,68.9,30.05,SE,135,0.0,1.6,85,0.00,,,0.00,WUHU216HW,2013-06-17 05:01:00,
2013-06-17 00:06:00,73.6,68.9,30.05,ESE,113,0.4,1.8,85,0.00,,,0.00,WUHU216HW,2013-06-17 05:06:00,
2013-06-17 00:11:00,73.4,68.7,30.05,ESE,113,0.0,1.8,85,0.00,,,0.00,WUHU216HW,2013-06-17 05:11:00,
2013-06-17 00:16:00,73.4,68.7,30.04,East,90,0.0,1.6,85,0.00,,,0.00,WUHU216HW,2013-06-17 05:16:00,
2013-06-17 00:21:00,73.4,68.7,30.04,ENE,68,0.4,1.6,85,0.00,,,0.00,WUHU216HW,2013-06-17 05:21:00,
2013-06-17 00:26:00,73.3,68.5,30.04,ENE,68,0.0,1.1,85,0.00,,,0.00,WUHU216HW,2013-06-17 05:26:00,
2013-06-17 00:31:00,73.3,68.5,30.04,ENE,68,0.0,0.4,85,0.00,,,0.00,WUHU216HW,2013-06-17 05:31:00,
2013-06-17 00:36:00,73.1,68.3,30.04,ENE,68,0.4,0.4,85,0.00,,,0.00,WUHU216HW,2013-06-17 05:36:00,
2013-06-17 00:41:00,73.1,68.7,30.04,SE,135,0.0,1.3,86,0.00,,,0.00,WUHU216HW,2013-06-17 05:41:00,
2013-06-17 00:46:00,73.1,68.7,30.04,ESE,113,0.0,1.3,86,0.00,,,0.00,WUHU216HW,2013-06-17 05:46:00,
2013-06-17 00:51:00,73.1,68.7,30.04,East,90,0.0,0.7,86,0.00,,,0.00,WUHU216HW,2013-06-17 05:51:00,
2013-06-17 00:56:00,72.9,68.5,30.04,ESE,113,0.7,0.9,86,0.00,,,0.00,WUHU216HW,2013-06-17 05:56:00,
2013-06-17 01:01:00,72.9,68.5,30.04,ESE,113,0.0,0.9,86,0.00,,,0.00,WUHU216HW,2013-06-17 06:01:00,
2013-06-17 01:06:00,72.9,68.5,30.04,ESE,113,0.0,0.4,86,0.00,,,0.00,WUHU216HW,2013-06-17 06:06:00,
2013-06-17 01:11:00,72.9,68.5,30.04,NE,45,1.6,2.9,86,0.00,,,0.00,WUHU216HW,2013-06-17 06:11:00,
2013-06-17 01:16:00,72.9,68.5,30.04,SE,135,1.1,2.9,86,0.00,,,0.00,WUHU216HW,2013-06-17 06:16:00,
2013-06-17 01:21:00,72.9,68.5,30.04,SE,135,0.0,2.0,86,0.00,,,0.00,WUHU216HW,2013-06-17 06:21:00,
2013-06-17 01:26:00,72.9,68.5,30.04,SE,135,0.0,0.7,86,0.00,,,0.00,WUHU216HW,2013-06-17 06:26:00,
2013-06-17 01:31:00,72.9,68.5,30.03,East,90,0.4,2.5,86,0.00,,,0.00,WUHU216HW,2013-06-17 06:31:00,
2013-06-17 01:36:00,72.9,68.5,30.03,East,90,0.0,2.5,86,0.00,,,0.00,WUHU216HW,2013-06-17 06:36:00,
2013-06-17 01:41:00,72.9,68.1,30.03,ESE,113,0.0,2.2,85,0.00,,,0.00,WUHU216HW,2013-06-17 06:41:00,
2013-06-17 01:46:00,72.7,68.0,30.03,SE,135,1.3,2.2,85,0.00,,,0.00,WUHU216HW,2013-06-17 06:46:00,
2013-06-17 01:51:00,72.7,68.0,30.03,ESE,113,1.1,2.7,85,0.00,,,0.00,WUHU216HW,2013-06-17 06:51:00,
2013-06-17 01:56:00,72.7,68.3,30.02,ENE,68,0.4,2.7,86,0.00,,,0.00,WUHU216HW,2013-06-17 06:56:00,
2013-06-17 02:01:00,72.5,68.1,30.03,ESE,113,0.0,1.8,86,0.00,,,0.00,WUHU216HW,2013-06-17 07:01:00,
2013-06-17 02:06:00,72.5,68.1,30.03,ESE,113,0.2,1.1,86,0.00,,,0.00,WUHU216HW,2013-06-17 07:06:00,
2013-06-17 02:11:00,72.5,68.1,30.03,SE,135,0.0,0.7,86,0.00,,,0.00,WUHU216HW,2013-06-17 07:11:00,
2013-06-17 02:16:00,72.4,68.0,30.03,North,0,0.0,0.7,86,0.00,,,0.00,WUHU216HW,2013-06-17 07:16:00,
2013-06-17 02:21:00,72.4,68.0,30.02,NE,45,0.7,1.1,86,0.00,,,0.00,WUHU216HW,2013-06-17 07:21:00,
2013-06-17 02:26:00,72.4,68.0,30.02,East,90,0.7,1.1,86,0.00,,,0.00,WUHU216HW,2013-06-17 07:26:00,
2013-06-17 02:31:00,72.4,68.0,30.02,ESE,113,0.4,1.1,86,0.00,,,0.00,WUHU216HW,2013-06-17 07:31:00,
2013-06-17 02:36:00,72.4,68.0,30.01,ESE,113,0.0,1.1,86,0.00,,,0.00,WUHU216HW,2013-06-17 07:36:00,
2013-06-17 02:41:00,72.2,67.8,30.01,ESE,113,0.0,0.4,86,0.00,,,0.00,WUHU216HW,2013-06-17 07:41:00,
2013-06-17 02:46:00,72.2,67.8,30.01,ESE,113,0.0,0.0,86,0.00,,,0.00,WUHU216HW,2013-06-17 07:46:00,
2013-06-17 02:51:00,72.2,67.8,30.01,East,90,0.0,1.1,86,0.00,,,0.00,WUHU216HW,2013-06-17 07:51:00,
2013-06-17 02:56:00,72.0,67.6,30.01,ESE,113,0.0,1.1,86,0.00,,,0.00,WUHU216HW,2013-06-17 07:56:00,
2013-06-17 03:01:00,72.0,67.6,30.01,ESE,113,0.0,0.4,86,0.00,,,0.00,WUHU216HW,2013-06-17 08:01:00,
2013-06-17 03:06:00,72.0,68.0,30.00,East,90,0.0,1.8,87,0.00,,,0.00,WUHU216HW,2013-06-17 08:06:00,
2013-06-17 03:11:00,72.0,68.0,30.01,ESE,113,0.0,1.8,87,0.00,,,0.00,WUHU216HW,2013-06-17 08:11:00,
2013-06-17 03:16:00,72.0,68.0,30.01,ESE,113,0.0,1.8,87,0.00,,,0.00,WUHU216HW,2013-06-17 08:16:00,
2013-06-17 03:21:00,72.0,68.0,30.01,SE,135,0.4,1.1,87,0.00,,,0.00,WUHU216HW,2013-06-17 08:21:00,
2013-06-17 03:26:00,72.0,68.0,30.01,South,180,0.4,1.1,87,0.00,,,0.00,WUHU216HW,2013-06-17 08:26:00,
2013-06-17 03:31:00,72.0,68.0,30.01,South,180,0.0,1.6,87,0.00,,,0.00,WUHU216HW,2013-06-17 08:31:00,
2013-06-17 03:36:00,72.0,68.0,30.01,ESE,113,0.4,1.6,87,0.00,,,0.00,WUHU216HW,2013-06-17 08:36:00,
2013-06-17 03:41:00,72.0,68.0,30.00,SE,135,0.9,1.1,87,0.00,,,0.00,WUHU216HW,2013-06-17 08:41:00,
2013-06-17 03:46:00,72.0,68.0,30.00,SE,135,0.9,1.1,87,0.00,,,0.00,WUHU216HW,2013-06-17 08:46:00,
2013-06-17 03:51:00,72.0,68.0,30.00,ESE,113,0.7,1.3,87,0.00,,,0.00,WUHU216HW,2013-06-17 08:51:00,
2013-06-17 03:56:00,72.0,68.2,30.01,SE,135,1.3,1.3,88,0.00,,,0.00,WUHU216HW,2013-06-17 08:56:00,
2013-06-17 04:01:00,72.0,68.2,30.01,SSW,203,1.8,1.8,88,0.00,,,0.00,WUHU216HW,2013-06-17 09:01:00,
2013-06-17 04:06:00,72.0,68.2,30.02,South,180,1.8,2.5,88,0.00,,,0.00,WUHU216HW,2013-06-17 09:06:00,
2013-06-17 04:11:00,72.2,68.4,30.02,South,180,1.1,3.1,88,0.00,,,0.00,WUHU216HW,2013-06-17 09:11:00,
2013-06-17 04:16:00,72.2,68.4,30.02,West,270,2.5,3.4,88,0.00,,,0.00,WUHU216HW,2013-06-17 09:16:00,
2013-06-17 04:21:00,72.4,68.6,30.03,SE,135,1.1,5.1,88,0.00,,,0.00,WUHU216HW,2013-06-17 09:21:00,
2013-06-17 04:26:00,72.4,68.6,30.02,ESE,113,1.8,5.1,88,0.00,,,0.00,WUHU216HW,2013-06-17 09:26:00,
2013-06-17 04:31:00,72.4,68.3,30.02,ESE,113,1.8,4.0,87,0.00,,,0.00,WUHU216HW,2013-06-17 09:31:00,
2013-06-17 04:36:00,72.2,67.8,30.02,South,180,6.5,6.5,86,0.00,,,0.00,WUHU216HW,2013-06-17 09:36:00,
2013-06-17 04:41:00,72.0,67.6,30.02,SW,225,4.9,9.8,86,0.00,,,0.00,WUHU216HW,2013-06-17 09:41:00,
2013-06-17 04:46:00,72.0,67.2,30.02,SSE,158,3.4,9.8,85,0.00,,,0.00,WUHU216HW,2013-06-17 09:46:00,
2013-06-17 04:50:00,71.8,67.1,30.03,South,180,3.4,6.0,85,0.00,,,0.00,WUHU216HW,2013-06-17 09:50:00,
2013-06-17 04:55:00,71.6,66.9,30.03,SSW,203,4.0,6.3,85,0.00,,,0.00,WUHU216HW,2013-06-17 09:55:00,
2013-06-17 05:00:00,71.5,66.7,30.03,SSW,203,5.4,8.5,85,0.00,,,0.00,WUHU216HW,2013-06-17 10:00:00,
2013-06-17 05:05:00,71.5,66.7,30.02,South,180,9.4,9.4,85,0.00,,,0.00,WUHU216HW,2013-06-17 10:05:00,
2013-06-17 05:10:00,71.3,66.5,30.02,SSE,158,2.5,9.4,85,0.00,,,0.00,WUHU216HW,2013-06-17 10:10:00,
2013-06-17 05:15:00,71.1,66.3,30.01,NE,45,1.8,9.4,85,0.00,,,0.00,WUHU216HW,2013-06-17 10:15:00,
2013-06-17 05:20:00,70.9,65.8,30.01,SSE,158,3.4,9.2,84,0.00,,,0.00,WUHU216HW,2013-06-17 10:20:00,
2013-06-17 05:25:00,70.7,65.6,30.00,SW,225,1.8,7.4,84,0.00,,,0.00,WUHU216HW,2013-06-17 10:25:00,
2013-06-17 05:30:00,70.6,65.4,30.00,SW,225,2.2,6.5,84,0.00,,,0.00,WUHU216HW,2013-06-17 10:30:00,
2013-06-17 05:35:00,70.6,65.4,30.00,SW,225,2.5,6.9,84,0.00,,,0.00,WUHU216HW,2013-06-17 10:35:00,
2013-06-17 05:40:00,70.4,65.3,30.01,SSW,203,3.8,6.9,84,0.00,,,0.00,WUHU216HW,2013-06-17 10:40:00,
2013-06-17 05:45:00,70.4,65.3,30.01,South,180,4.5,5.4,84,0.00,,,0.00,WUHU216HW,2013-06-17 10:45:00,
2013-06-17 05:50:00,70.4,65.3,30.01,WSW,248,4.0,5.4,84,0.00,,,0.00,WUHU216HW,2013-06-17 10:50:00,
2013-06-17 05:55:00,70.4,65.3,30.01,SSE,158,1.8,4.7,84,0.00,,,0.00,WUHU216HW,2013-06-17 10:55:00,
2013-06-17 06:00:00,70.2,65.1,30.01,SW,225,1.6,4.7,84,0.00,,,0.00,WUHU216HW,2013-06-17 11:00:00,
2013-06-17 06:05:00,70.2,65.1,30.01,SSE,158,0.4,4.7,84,0.00,,,0.00,WUHU216HW,2013-06-17 11:05:00,
2013-06-17 06:10:00,70.2,65.1,30.01,South,180,1.3,4.0,84,0.00,,,0.00,WUHU216HW,2013-06-17 11:10:00,
2013-06-17 06:15:00,70.2,65.1,30.01,SSE,158,0.0,4.0,84,0.00,,,0.00,WUHU216HW,2013-06-17 11:15:00,
2013-06-17 06:20:00,70.2,65.1,30.01,SSE,158,1.3,2.9,84,0.00,,,0.00,WUHU216HW,2013-06-17 11:20:00,
2013-06-17 06:25:00,70.2,65.1,30.00,NNW,338,0.4,1.6,84,0.00,,,0.00,WUHU216HW,2013-06-17 11:25:00,
2013-06-17 06:30:00,70.2,64.7,30.00,NNW,338,0.0,1.6,83,0.00,,,0.00,WUHU216HW,2013-06-17 11:30:00,
2013-06-17 06:35:00,70.2,64.7,30.01,NNW,338,0.0,0.9,83,0.00,,,0.00,WUHU216HW,2013-06-17 11:35:00,
2013-06-17 06:40:00,70.0,64.5,30.01,North,0,0.0,0.7,83,0.00,,,0.00,WUHU216HW,2013-06-17 11:40:00,
2013-06-17 06:45:00,70.0,64.5,30.00,North,0,0.4,0.7,83,0.00,,,0.00,WUHU216HW,2013-06-17 11:45:00,
2013-06-17 06:50:00,70.0,64.5,30.01,North,0,0.0,0.7,83,0.00,,,0.00,WUHU216HW,2013-06-17 11:50:00,
2013-06-17 06:55:00,70.0,64.5,30.02,NW,315,0.9,1.1,83,0.00,,,0.00,WUHU216HW,2013-06-17 11:55:00,
2013-06-17 07:00:00,69.8,64.4,30.02,North,0,1.3,1.8,83,0.00,,,0.00,WUHU216HW,2013-06-17 12:00:00,
2013-06-17 07:05:00,69.8,64.4,30.02,NNW,338,1.1,1.8,83,0.00,,,0.00,WUHU216HW,2013-06-17 12:05:00,
2013-06-17 07:10:00,69.8,64.4,30.02,NNW,338,0.0,1.3,83,0.00,,,0.00,WUHU216HW,2013-06-17 12:10:00,
2013-06-17 07:15:00,69.7,64.3,30.03,NNW,338,0.4,1.3,83,0.00,,,0.00,WUHU216HW,2013-06-17 12:15:00,
2013-06-17 07:20:00,69.7,64.3,30.03,NNW,338,0.0,1.1,83,0.00,,,0.00,WUHU216HW,2013-06-17 12:20:00,
2013-06-17 07:25:00,69.7,64.3,30.02,NNW,338,2.5,2.5,83,0.00,,,0.00,WUHU216HW,2013-06-17 12:25:00,
2013-06-17 07:30:00,69.8,64.4,30.02,NNW,338,0.7,2.5,83,0.00,,,0.00,WUHU216HW,2013-06-17 12:30:00,
2013-06-17 07:35:00,69.8,64.4,30.02,NNW,338,2.5,2.5,83,0.00,,,0.00,WUHU216HW,2013-06-17 12:35:00,
2013-06-17 07:40:00,69.8,64.4,30.02,NW,315,0.4,2.5,83,0.00,,,0.00,WUHU216HW,2013-06-17 12:40:00,
2013-06-17 07:45:00,69.8,64.4,30.03,SE,135,1.3,2.5,83,0.00,,,0.00,WUHU216HW,2013-06-17 12:45:00,
2013-06-17 07:50:00,69.8,64.4,30.04,SSE,158,0.7,2.0,83,0.00,,,0.00,WUHU216HW,2013-06-17 12:50:00,
2013-06-17 07:55:00,69.8,64.4,30.04,SSE,158,0.0,2.0,83,0.00,,,0.00,WUHU216HW,2013-06-17 12:55:00,
2013-06-17 08:00:00,69.8,64.7,30.04,SSE,158,0.0,0.2,84,0.00,,,0.00,WUHU216HW,2013-06-17 13:00:00,
2013-06-17 08:05:00,69.8,64.7,30.04,SE,135,0.2,1.1,84,0.00,,,0.00,WUHU216HW,2013-06-17 13:05:00,
2013-06-17 08:10:00,70.0,64.9,30.04,SE,135,0.0,1.1,84,0.00,,,0.00,WUHU216HW,2013-06-17 13:10:00,
2013-06-17 08:15:00,69.8,64.7,30.03,SE,135,0.0,0.4,84,0.00,,,0.00,WUHU216HW,2013-06-17 13:15:00,
2013-06-17 08:20:00,69.8,64.7,30.03,ESE,113,0.4,0.4,84,0.00,,,0.00,WUHU216HW,2013-06-17 13:20:00,
2013-06-17 08:25:00,69.8,64.7,30.03,North,0,1.1,1.1,84,0.00,,,0.00,WUHU216HW,2013-06-17 13:25:00,
2013-06-17 08:30:00,70.0,64.9,30.04,SE,135,1.1,1.8,84,0.00,,,0.00,WUHU216HW,2013-06-17 13:30:00,
2013-06-17 08:35:00,70.2,65.1,30.05,SE,135,0.0,1.8,84,0.00,,,0.00,WUHU216HW,2013-06-17 13:35:00,
2013-06-17 08:40:00,70.2,65.1,30.06,SE,135,0.0,1.1,84,0.00,,,0.00,WUHU216HW,2013-06-17 13:40:00,
2013-06-17 08:45:00,70.2,65.1,30.06,SE,135,0.0,0.0,84,0.00,,,0.00,WUHU216HW,2013-06-17 13:45:00,
2013-06-17 08:50:00,70.4,65.6,30.07,NNE,23,0.0,0.4,85,0.00,,,0.00,WUHU216HW,2013-06-17 13:50:00,
2013-06-17 08:55:00,70.6,65.8,30.07,NNE,23,0.0,0.4,85,0.00,,,0.00,WUHU216HW,2013-06-17 13:55:00,
2013-06-17 09:00:00,70.6,65.8,30.08,ESE,113,1.6,1.6,85,0.00,,,0.00,WUHU216HW,2013-06-17 14:00:00,
2013-06-17 09:05:00,70.7,66.0,30.07,ESE,113,0.9,2.5,85,0.00,,,0.00,WUHU216HW,2013-06-17 14:05:00,
2013-06-17 09:10:00,70.7,66.0,30.07,SE,135,0.9,2.5,85,0.00,,,0.00,WUHU216HW,2013-06-17 14:10:00,
2013-06-17 09:15:00,70.7,66.0,30.08,East,90,2.0,2.0,85,0.00,,,0.00,WUHU216HW,2013-06-17 14:15:00,
2013-06-17 09:20:00,70.9,66.2,30.08,East,90,0.0,2.0,85,0.00,,,0.00,WUHU216HW,2013-06-17 14:20:00,
2013-06-17 09:25:00,70.9,66.2,30.07,East,90,0.0,2.0,85,0.00,,,0.00,WUHU216HW,2013-06-17 14:25:00,
2013-06-17 09:30:00,70.9,66.2,30.07,North,0,0.0,0.4,85,0.00,,,0.00,WUHU216HW,2013-06-17 14:30:00,
2013-06-17 09:35:00,71.3,66.5,30.07,North,0,0.0,1.8,85,0.00,,,0.00,WUHU216HW,2013-06-17 14:35:00,
2013-06-17 09:40:00,71.3,66.5,30.07,East,90,0.0,2.5,85,0.00,,,0.00,WUHU216HW,2013-06-17 14:40:00,
2013-06-17 09:45:00,71.3,66.5,30.07,East,90,0.0,2.5,85,0.00,,,0.00,WUHU216HW,2013-06-17 14:45:00,
2013-06-17 09:50:00,71.5,66.7,30.08,ENE,68,0.0,0.4,85,0.00,,,0.00,WUHU216HW,2013-06-17 14:50:00,
2013-06-17 09:55:00,71.6,66.5,30.08,SW,225,1.1,1.6,84,0.00,,,0.00,WUHU216HW,2013-06-17 14:55:00,
2013-06-17 10:00:00,71.6,66.5,30.08,SSW,203,0.7,1.8,84,0.00,,,0.00,WUHU216HW,2013-06-17 15:00:00,
2013-06-17 10:05:00,71.6,66.5,30.08,SSE,158,0.4,1.8,84,0.00,,,0.00,WUHU216HW,2013-06-17 15:05:00,
2013-06-17 10:10:00,72.0,66.9,30.09,SW,225,0.0,1.1,84,0.00,,,0.00,WUHU216HW,2013-06-17 15:10:00,
2013-06-17 10:15:00,72.0,66.9,30.09,ENE,68,0.2,1.3,84,0.00,,,0.00,WUHU216HW,2013-06-17 15:15:00,
2013-06-17 10:20:00,72.2,67.1,30.09,South,180,0.4,1.3,84,0.00,,,0.00,WUHU216HW,2013-06-17 15:20:00,
2013-06-17 10:25:00,72.2,66.7,30.09,South,180,0.0,1.1,83,0.00,,,0.00,WUHU216HW,2013-06-17 15:25:00,
2013-06-17 10:30:00,72.4,66.9,30.09,South,180,1.1,1.8,83,0.00,,,0.00,WUHU216HW,2013-06-17 15:30:00,
2013-06-17 10:35:00,72.4,66.9,30.09,WSW,248,1.1,1.8,83,0.00,,,0.00,WUHU216HW,2013-06-17 15:35:00,
2013-06-17 10:40:00,72.5,67.1,30.09,SW,225,0.0,1.3,83,0.00,,,0.00,WUHU216HW,2013-06-17 15:40:00,
2013-06-17 10:45:00,72.7,67.2,30.09,SW,225,0.9,1.8,83,0.00,,,0.00,WUHU216HW,2013-06-17 15:45:00,
2013-06-17 10:50:00,72.9,67.4,30.10,WNW,293,2.2,2.2,83,0.00,,,0.00,WUHU216HW,2013-06-17 15:50:00,
2013-06-17 10:55:00,72.9,67.8,30.10,WNW,293,1.1,2.5,84,0.00,,,0.00,WUHU216HW,2013-06-17 15:55:00,
2013-06-17 11:00:00,73.1,68.0,30.10,WSW,248,1.1,3.4,84,0.00,,,0.00,WUHU216HW,2013-06-17 16:00:00,
2013-06-17 11:05:00,73.3,67.8,30.10,WNW,293,1.1,3.4,83,0.00,,,0.00,WUHU216HW,2013-06-17 16:05:00,
2013-06-17 11:10:00,73.3,67.8,30.10,WSW,248,0.7,3.1,83,0.00,,,0.00,WUHU216HW,2013-06-17 16:10:00,
2013-06-17 11:15:00,73.4,68.0,30.10,WSW,248,0.7,2.0,83,0.00,,,0.00,WUHU216HW,2013-06-17 16:15:00,
2013-06-17 11:20:00,73.6,68.1,30.10,NNW,338,0.2,2.0,83,0.00,,,0.00,WUHU216HW,2013-06-17 16:20:00,
2013-06-17 11:25:00,73.8,68.3,30.10,West,270,1.1,2.5,83,0.00,,,0.00,WUHU216HW,2013-06-17 16:25:00,
2013-06-17 11:30:00,74.0,68.2,30.10,SW,225,1.8,4.5,82,0.00,,,0.00,WUHU216HW,2013-06-17 16:30:00,
2013-06-17 11:35:00,74.3,68.6,30.10,WSW,248,1.1,4.5,82,0.00,,,0.00,WUHU216HW,2013-06-17 16:35:00,
2013-06-17 11:40:00,74.5,68.8,30.10,NNE,23,0.4,3.1,82,0.00,,,0.00,WUHU216HW,2013-06-17 16:40:00,
2013-06-17 11:45:00,74.7,68.6,30.10,NNW,338,1.1,2.7,81,0.00,,,0.00,WUHU216HW,2013-06-17 16:45:00,
2013-06-17 11:50:00,74.9,68.8,30.10,WSW,248,1.1,2.7,81,0.00,,,0.00,WUHU216HW,2013-06-17 16:50:00,
2013-06-17 11:55:00,75.1,69.0,30.10,WNW,293,0.7,2.2,81,0.00,,,0.00,WUHU216HW,2013-06-17 16:55:00,
2013-06-17 12:00:00,75.2,68.8,30.10,West,270,1.8,2.5,80,0.00,,,0.00,WUHU216HW,2013-06-17 17:00:00,
2013-06-17 12:05:00,75.2,68.8,30.10,WSW,248,1.8,2.5,80,0.00,,,0.00,WUHU216HW,2013-06-17 17:05:00,
2013-06-17 12:10:00,75.2,68.4,30.10,NNW,338,0.4,2.5,79,0.00,,,0.00,WUHU216HW,2013-06-17 17:10:00,
2013-06-17 12:15:00,75.4,68.5,30.10,NW,315,1.6,2.5,79,0.00,,,0.00,WUHU216HW,2013-06-17 17:15:00,
2013-06-17 12:20:00,75.6,68.7,30.10,NNW,338,1.3,3.4,79,0.00,,,0.00,WUHU216HW,2013-06-17 17:20:00,
2013-06-17 12:25:00,75.6,68.3,30.10,WSW,248,1.3,3.4,78,0.00,,,0.00,WUHU216HW,2013-06-17 17:25:00,
2013-06-17 12:30:00,75.8,68.5,30.10,WNW,293,1.6,3.4,78,0.00,,,0.00,WUHU216HW,2013-06-17 17:30:00,
2013-06-17 12:35:00,75.8,68.0,30.10,West,270,2.0,3.4,77,0.00,,,0.00,WUHU216HW,2013-06-17 17:35:00,
2013-06-17 12:40:00,75.8,67.7,30.10,SW,225,1.8,4.3,76,0.00,,,0.00,WUHU216HW,2013-06-17 17:40:00,
2013-06-17 12:45:00,75.8,67.7,30.10,WNW,293,0.4,4.3,76,0.00,,,0.00,WUHU216HW,2013-06-17 17:45:00,
2013-06-17 12:50:00,75.6,67.5,30.10,WSW,248,0.7,2.5,76,0.00,,,0.00,WUHU216HW,2013-06-17 17:50:00,
2013-06-17 12:55:00,75.6,67.5,30.10,WSW,248,1.3,3.4,76,0.00,,,0.00,WUHU216HW,2013-06-17 17:55:00,
2013-06-17 13:00:00,75.4,67.3,30.10,SW,225,3.4,3.4,76,0.00,,,0.00,WUHU216HW,2013-06-17 18:00:00,
2013-06-17 13:05:00,75.2,67.6,30.10,WSW,248,1.1,3.6,77,0.00,,,0.00,WUHU216HW,2013-06-17 18:05:00,
2013-06-17 13:10:00,75.2,67.6,30.10,WSW,248,0.7,3.6,77,0.00,,,0.00,WUHU216HW,2013-06-17 18:10:00,
2013-06-17 13:15:00,75.2,67.6,30.09,SW,225,1.1,2.5,77,0.00,,,0.00,WUHU216HW,2013-06-17 18:15:00,
2013-06-17 13:20:00,75.2,68.0,30.09,WSW,248,0.7,2.5,78,0.00,,,0.00,WUHU216HW,2013-06-17 18:20:00,
2013-06-17 13:25:00,75.2,68.0,30.09,SW,225,1.3,2.0,78,0.00,,,0.00,WUHU216HW,2013-06-17 18:25:00,
2013-06-17 13:29:00,75.4,68.1,30.09,SSE,158,1.1,2.2,78,0.00,,,0.00,WUHU216HW,2013-06-17 18:29:00,
2013-06-17 13:34:00,75.4,68.1,30.09,WSW,248,1.6,3.8,78,0.00,,,0.00,WUHU216HW,2013-06-17 18:34:00,
2013-06-17 13:39:00,75.6,68.3,30.09,SSW,203,1.1,3.8,78,0.00,,,0.00,WUHU216HW,2013-06-17 18:39:00,
2013-06-17 13:44:00,75.6,68.3,30.09,SW,225,1.1,2.5,78,0.00,,,0.00,WUHU216HW,2013-06-17 18:44:00,
2013-06-17 13:49:00,75.6,68.7,30.09,WSW,248,0.4,2.5,79,0.00,,,0.00,WUHU216HW,2013-06-17 18:49:00,
2013-06-17 13:54:00,75.6,68.7,30.09,SE,135,0.9,2.2,79,0.00,,,0.00,WUHU216HW,2013-06-17 18:54:00,
2013-06-17 13:59:00,75.6,68.7,30.09,SSE,158,1.3,2.5,79,0.00,,,0.00,WUHU216HW,2013-06-17 18:59:00,
2013-06-17 14:04:00,75.4,68.5,30.09,SSE,158,0.4,3.1,79,0.00,,,0.00,WUHU216HW,2013-06-17 19:04:00,
2013-06-17 14:09:00,75.2,68.4,30.08,SSE,158,1.1,4.0,79,0.00,,,0.00,WUHU216HW,2013-06-17 19:09:00,
2013-06-17 14:14:00,75.2,68.4,30.09,WSW,248,2.2,4.0,79,0.00,,,0.00,WUHU216HW,2013-06-17 19:14:00,
2013-06-17 14:19:00,75.1,68.2,30.09,SSW,203,1.6,3.1,79,0.00,,,0.00,WUHU216HW,2013-06-17 19:19:00,
2013-06-17 14:24:00,74.9,68.1,30.09,SW,225,1.6,3.1,79,0.00,,,0.00,WUHU216HW,2013-06-17 19:24:00,
2013-06-17 14:29:00,74.9,68.1,30.08,SSE,158,2.0,3.4,79,0.00,,,0.00,WUHU216HW,2013-06-17 19:29:00,
2013-06-17 14:34:00,74.7,67.9,30.08,South,180,0.7,3.4,79,0.00,,,0.00,WUHU216HW,2013-06-17 19:34:00,
2013-06-17 14:39:00,74.9,68.4,30.08,South,180,2.5,3.8,80,0.00,,,0.00,WUHU216HW,2013-06-17 19:39:00,
2013-06-17 14:44:00,74.9,68.4,30.08,SSW,203,1.8,5.1,80,0.00,,,0.00,WUHU216HW,2013-06-17 19:44:00,
2013-06-17 14:49:00,74.9,68.4,30.08,South,180,1.1,6.7,80,0.00,,,0.00,WUHU216HW,2013-06-17 19:49:00,
2013-06-17 14:54:00,74.9,68.4,30.08,South,180,4.3,6.7,80,0.00,,,0.00,WUHU216HW,2013-06-17 19:54:00,
2013-06-17 14:59:00,74.9,68.4,30.08,SSW,203,2.0,4.7,80,0.00,,,0.00,WUHU216HW,2013-06-17 19:59:00,
2013-06-17 15:04:00,74.9,68.4,30.08,SW,225,0.7,4.3,80,0.00,,,0.00,WUHU216HW,2013-06-17 20:04:00,
2013-06-17 15:09:00,75.1,68.6,30.08,SSE,158,1.8,3.1,80,0.00,,,0.00,WUHU216HW,2013-06-17 20:09:00,
2013-06-17 15:14:00,75.1,68.2,30.07,SW,225,2.7,3.1,79,0.00,,,0.00,WUHU216HW,2013-06-17 20:14:00,
2013-06-17 15:19:00,75.2,68.4,30.07,South,180,0.7,4.5,79,0.00,,,0.00,WUHU216HW,2013-06-17 20:19:00,
2013-06-17 15:24:00,75.2,68.0,30.07,SE,135,2.7,4.5,78,0.00,,,0.00,WUHU216HW,2013-06-17 20:24:00,
2013-06-17 15:29:00,75.6,68.3,30.06,SSW,203,0.7,3.1,78,0.00,,,0.00,WUHU216HW,2013-06-17 20:29:00,
2013-06-17 15:34:00,75.8,68.5,30.06,WSW,248,1.1,2.9,78,0.00,,,0.00,WUHU216HW,2013-06-17 20:34:00,
2013-06-17 15:39:00,76.3,68.9,30.06,WSW,248,0.9,2.5,78,0.00,,,0.00,WUHU216HW,2013-06-17 20:39:00,
2013-06-17 15:44:00,76.7,69.3,30.07,North,0,1.1,3.1,78,0.00,,,0.00,WUHU216HW,2013-06-17 20:44:00,
2013-06-17 15:49:00,77.0,69.7,30.07,SSW,203,0.7,3.1,78,0.00,,,0.00,WUHU216HW,2013-06-17 20:49:00,
2013-06-17 15:54:00,77.4,69.6,30.07,West,270,1.8,3.1,77,0.00,,,0.00,WUHU216HW,2013-06-17 20:54:00,
2013-06-17 15:59:00,77.4,69.6,30.07,NNW,338,0.0,3.1,77,0.00,,,0.00,WUHU216HW,2013-06-17 20:59:00,
2013-06-17 16:04:00,77.2,69.9,30.07,NW,315,0.2,2.5,78,0.00,,,0.00,WUHU216HW,2013-06-17 21:04:00,
2013-06-17 16:09:00,76.7,69.0,30.07,NE,45,0.4,2.0,77,0.00,,,0.00,WUHU216HW,2013-06-17 21:09:00,
2013-06-17 16:14:00,76.5,68.8,30.07,ENE,68,0.4,1.8,77,0.00,,,0.00,WUHU216HW,2013-06-17 21:14:00,
2013-06-17 16:19:00,76.3,68.6,30.08,East,90,0.9,1.6,77,0.00,,,0.00,WUHU216HW,2013-06-17 21:19:00,
2013-06-17 16:24:00,76.0,68.7,30.08,ESE,113,3.8,3.8,78,0.00,,,0.00,WUHU216HW,2013-06-17 21:24:00,
2013-06-17 16:29:00,75.6,68.0,30.08,SE,135,1.8,8.7,77,0.00,,,0.00,WUHU216HW,2013-06-17 21:29:00,
2013-06-17 16:34:00,75.1,67.4,30.07,ESE,113,2.5,8.7,77,0.01,,,0.01,WUHU216HW,2013-06-17 21:34:00,
2013-06-17 16:39:00,74.5,66.5,30.07,ESE,113,1.1,4.9,76,0.01,,,0.01,WUHU216HW,2013-06-17 21:39:00,
2013-06-17 16:44:00,74.0,66.3,30.07,East,90,2.5,4.3,77,0.04,,,0.04,WUHU216HW,2013-06-17 21:44:00,
2013-06-17 16:49:00,73.3,65.6,30.08,ESE,113,1.3,2.7,77,0.04,,,0.04,WUHU216HW,2013-06-17 21:49:00,
2013-06-17 16:54:00,72.7,65.9,30.08,ESE,113,0.9,2.7,79,0.05,,,0.05,WUHU216HW,2013-06-17 21:54:00,
2013-06-17 16:59:00,72.4,65.2,30.06,WSW,248,1.6,1.8,78,0.05,,,0.05,WUHU216HW,2013-06-17 21:59:00,
2013-06-17 17:04:00,72.2,65.4,30.06,WSW,248,0.0,1.8,79,0.05,,,0.05,WUHU216HW,2013-06-17 22:04:00,
2013-06-17 17:09:00,71.8,65.3,30.05,WSW,248,0.4,2.2,80,0.05,,,0.05,WUHU216HW,2013-06-17 22:09:00,
2013-06-17 17:14:00,71.5,65.0,30.05,NW,315,0.0,2.2,80,0.05,,,0.05,WUHU216HW,2013-06-17 22:14:00,
2013-06-17 17:19:00,71.3,65.2,30.05,ESE,113,0.4,1.1,81,0.05,,,0.05,WUHU216HW,2013-06-17 22:19:00,
2013-06-17 17:24:00,71.1,65.4,30.04,East,90,0.0,1.1,82,0.05,,,0.05,WUHU216HW,2013-06-17 22:24:00,
2013-06-17 17:29:00,71.1,65.4,30.04,NE,45,0.0,0.4,82,0.05,,,0.05,WUHU216HW,2013-06-17 22:29:00,
2013-06-17 17:34:00,71.1,65.4,30.04,NW,315,0.4,1.1,82,0.04,,,0.05,WUHU216HW,2013-06-17 22:34:00,
2013-06-17 17:39:00,71.1,65.6,30.04,NNW,338,0.4,1.1,83,0.03,,,0.05,WUHU216HW,2013-06-17 22:39:00,
2013-06-17 17:44:00,71.3,65.8,30.04,NE,45,0.4,1.3,83,0.01,,,0.05,WUHU216HW,2013-06-17 22:44:00,
2013-06-17 17:49:00,71.5,66.0,30.04,NNE,23,0.0,1.3,83,0.01,,,0.05,WUHU216HW,2013-06-17 22:49:00,
2013-06-17 17:54:00,71.6,66.2,30.03,ENE,68,0.9,2.2,83,0.00,,,0.05,WUHU216HW,2013-06-17 22:54:00,
2013-06-17 17:59:00,71.6,66.2,30.04,SE,135,0.2,2.2,83,0.00,,,0.05,WUHU216HW,2013-06-17 22:59:00,
2013-06-17 18:04:00,71.8,66.3,30.04,NNE,23,0.0,2.0,83,0.00,,,0.05,WUHU216HW,2013-06-17 23:04:00,
2013-06-17 18:09:00,72.0,66.5,30.04,North,0,0.9,2.0,83,0.00,,,0.05,WUHU216HW,2013-06-17 23:09:00,
2013-06-17 18:14:00,72.0,66.3,30.04,North,0,0.4,1.1,82,0.00,,,0.05,WUHU216HW,2013-06-17 23:14:00,
2013-06-17 18:19:00,72.0,66.3,30.04,NNW,338,0.0,1.1,82,0.00,,,0.05,WUHU216HW,2013-06-17 23:19:00,
2013-06-17 18:24:00,72.2,66.4,30.04,WSW,248,0.0,1.1,82,0.00,,,0.05,WUHU216HW,2013-06-17 23:24:00,
2013-06-17 18:29:00,72.4,66.6,30.04,WSW,248,0.0,0.7,82,0.00,,,0.05,WUHU216HW,2013-06-17 23:29:00,
2013-06-17 18:34:00,72.4,66.3,30.03,NNE,23,1.6,1.6,81,0.00,,,0.05,WUHU216HW,2013-06-17 23:34:00,
2013-06-17 18:39:00,72.4,66.3,30.03,West,270,0.4,1.6,81,0.00,,,0.05,WUHU216HW,2013-06-17 23:39:00,
2013-06-17 18:44:00,72.4,66.3,30.04,WSW,248,0.2,1.8,81,0.00,,,0.05,WUHU216HW,2013-06-17 23:44:00,
2013-06-17 18:49:00,72.5,66.8,30.03,ESE,113,0.9,1.8,82,0.00,,,0.05,WUHU216HW,2013-06-17 23:49:00,
2013-06-17 18:54:00,72.7,67.0,30.03,North,0,1.3,1.3,82,0.00,,,0.05,WUHU216HW,2013-06-17 23:54:00,
2013-06-17 18:59:00,72.7,67.2,30.03,West,270,0.0,1.3,83,0.00,,,0.05,WUHU216HW,2013-06-17 23:59:00,
2013-06-17 19:04:00,72.9,67.4,30.03,North,0,0.0,0.9,83,0.00,,,0.05,WUHU216HW,2013-06-18 00:04:00,
2013-06-17 19:09:00,72.9,67.4,30.03,North,0,0.0,0.0,83,0.00,,,0.05,WUHU216HW,2013-06-18 00:09:00,
2013-06-17 19:14:00,73.1,67.3,30.03,NNW,338,0.0,1.1,82,0.00,,,0.05,WUHU216HW,2013-06-18 00:14:00,
2013-06-17 19:19:00,73.1,67.3,30.04,NNE,23,0.0,1.1,82,0.00,,,0.05,WUHU216HW,2013-06-18 00:19:00,
2013-06-17 19:24:00,73.1,67.6,30.03,NNW,338,0.4,0.4,83,0.00,,,0.05,WUHU216HW,2013-06-18 00:24:00,
2013-06-17 19:29:00,73.1,67.6,30.04,North,0,0.0,1.8,83,0.00,,,0.05,WUHU216HW,2013-06-18 00:29:00,
2013-06-17 19:34:00,73.3,67.8,30.04,North,0,0.0,1.8,83,0.00,,,0.05,WUHU216HW,2013-06-18 00:34:00,
2013-06-17 19:39:00,73.3,67.8,30.04,North,0,0.0,0.4,83,0.00,,,0.05,WUHU216HW,2013-06-18 00:39:00,
2013-06-17 19:44:00,73.3,67.8,30.04,North,0,0.0,0.0,83,0.00,,,0.05,WUHU216HW,2013-06-18 00:44:00,
2013-06-17 19:49:00,73.1,68.0,30.04,NNE,23,0.0,0.0,84,0.00,,,0.05,WUHU216HW,2013-06-18 00:49:00,
2013-06-17 19:54:00,73.1,68.0,30.04,ENE,68,0.2,1.1,84,0.00,,,0.05,WUHU216HW,2013-06-18 00:54:00,
2013-06-17 19:59:00,72.9,67.4,30.04,ENE,68,0.0,1.1,83,0.00,,,0.05,WUHU216HW,2013-06-18 00:59:00,
2013-06-17 20:04:00,72.7,67.2,30.04,ENE,68,0.0,0.2,83,0.00,,,0.05,WUHU216HW,2013-06-18 01:04:00,
2013-06-17 20:09:00,72.5,66.8,30.04,ENE,68,0.0,0.0,82,0.00,,,0.05,WUHU216HW,2013-06-18 01:09:00,
2013-06-17 20:14:00,72.4,66.6,30.04,ENE,68,0.0,0.0,82,0.00,,,0.05,WUHU216HW,2013-06-18 01:14:00,
2013-06-17 20:19:00,72.4,66.9,30.04,ENE,68,0.0,0.0,83,0.00,,,0.05,WUHU216HW,2013-06-18 01:19:00,
2013-06-17 20:24:00,72.2,66.7,30.04,ENE,68,0.0,0.0,83,0.00,,,0.05,WUHU216HW,2013-06-18 01:24:00,
2013-06-17 20:29:00,72.0,66.5,30.04,ENE,68,0.0,0.0,83,0.00,,,0.05,WUHU216HW,2013-06-18 01:29:00,
2013-06-17 20:34:00,71.8,66.3,30.04,ENE,68,0.0,0.0,83,0.00,,,0.05,WUHU216HW,2013-06-18 01:34:00,
2013-06-17 20:39:00,71.8,66.7,30.04,ENE,68,0.0,0.0,84,0.00,,,0.05,WUHU216HW,2013-06-18 01:39:00,
2013-06-17 20:44:00,71.6,66.5,30.04,ENE,68,0.0,0.0,84,0.00,,,0.05,WUHU216HW,2013-06-18 01:44:00,
2013-06-17 20:49:00,71.5,66.3,30.04,ENE,68,0.0,0.0,84,0.00,,,0.05,WUHU216HW,2013-06-18 01:49:00,
2013-06-17 20:54:00,71.3,66.2,30.04,ENE,68,0.0,0.0,84,0.00,,,0.05,WUHU216HW,2013-06-18 01:54:00,
2013-06-17 20:59:00,71.1,66.0,30.04,ENE,68,0.0,0.0,84,0.00,,,0.05,WUHU216HW,2013-06-18 01:59:00,
2013-06-17 21:04:00,70.9,65.8,30.04,ENE,68,0.0,0.0,84,0.00,,,0.05,WUHU216HW,2013-06-18 02:04:00,
2013-06-17 21:09:00,70.9,65.8,30.05,ENE,68,0.0,0.0,84,0.00,,,0.05,WUHU216HW,2013-06-18 02:09:00,
2013-06-17 21:14:00,70.7,65.6,30.05,ENE,68,0.0,0.0,84,0.00,,,0.05,WUHU216HW,2013-06-18 02:14:00,
2013-06-17 21:19:00,70.6,65.4,30.05,East,90,0.0,0.0,84,0.00,,,0.05,WUHU216HW,2013-06-18 02:19:00,
2013-06-17 21:24:00,70.4,65.6,30.05,NE,45,0.0,0.2,85,0.00,,,0.05,WUHU216HW,2013-06-18 02:24:00,
2013-06-17 21:29:00,70.2,65.4,30.05,NE,45,0.0,0.2,85,0.00,,,0.05,WUHU216HW,2013-06-18 02:29:00,
2013-06-17 21:34:00,70.2,65.4,30.06,NE,45,0.0,0.0,85,0.00,,,0.05,WUHU216HW,2013-06-18 02:34:00,
2013-06-17 21:39:00,70.2,65.4,30.06,NE,45,0.0,0.0,85,0.00,,,0.05,WUHU216HW,2013-06-18 02:39:00,
2013-06-17 21:44:00,70.0,65.3,30.05,NE,45,0.0,0.0,85,0.00,,,0.05,WUHU216HW,2013-06-18 02:44:00,
2013-06-17 21:49:00,69.8,65.1,30.05,East,90,0.0,0.0,85,0.00,,,0.05,WUHU216HW,2013-06-18 02:49:00,
2013-06-17 21:54:00,69.8,65.1,30.06,East,90,0.0,0.2,85,0.00,,,0.05,WUHU216HW,2013-06-18 02:54:00,
2013-06-17 21:59:00,69.7,64.9,30.06,East,90,0.0,0.2,85,0.00,,,0.05,WUHU216HW,2013-06-18 02:59:00,
2013-06-17 22:04:00,69.7,64.9,30.06,East,90,0.0,0.0,85,0.00,,,0.05,WUHU216HW,2013-06-18 03:04:00,
2013-06-17 22:09:00,69.5,64.7,30.06,East,90,0.4,0.4,85,0.00,,,0.05,WUHU216HW,2013-06-18 03:09:00,
2013-06-17 22:14:00,69.5,64.7,30.06,ESE,113,0.0,0.9,85,0.00,,,0.05,WUHU216HW,2013-06-18 03:14:00,
2013-06-17 22:19:00,69.3,64.5,30.07,ESE,113,0.0,0.9,85,0.00,,,0.05,WUHU216HW,2013-06-18 03:19:00,
2013-06-17 22:24:00,69.3,64.5,30.07,ESE,113,0.0,0.0,85,0.00,,,0.05,WUHU216HW,2013-06-18 03:24:00,
2013-06-17 22:29:00,69.1,64.4,30.07,ESE,113,0.0,0.0,85,0.00,,,0.05,WUHU216HW,2013-06-18 03:29:00,
2013-06-17 22:34:00,69.1,64.4,30.07,ESE,113,0.0,0.0,85,0.00,,,0.05,WUHU216HW,2013-06-18 03:34:00,
2013-06-17 22:39:00,68.9,64.3,30.07,ESE,113,0.0,0.0,85,0.00,,,0.05,WUHU216HW,2013-06-18 03:39:00,
2013-06-17 22:44:00,68.8,64.4,30.07,ESE,113,0.0,0.0,86,0.00,,,0.05,WUHU216HW,2013-06-18 03:44:00,
2013-06-17 22:48:00,68.8,64.4,30.07,SE,135,0.0,0.4,86,0.00,,,0.05,WUHU216HW,2013-06-18 03:48:00,
2013-06-17 22:53:00,68.6,64.2,30.07,SE,135,0.0,0.4,86,0.00,,,0.05,WUHU216HW,2013-06-18 03:53:00,
2013-06-17 22:58:00,68.6,64.2,30.07,SE,135,0.0,0.0,86,0.00,,,0.05,WUHU216HW,2013-06-18 03:58:00,
2013-06-17 23:01:00,68.6,64.2,30.07,SE,135,0.0,0.0,86,0.00,,,0.05,WUHU216HW,2013-06-18 04:01:00,
2013-06-17 23:06:00,68.4,64.0,30.07,SE,135,0.0,0.0,86,0.00,,,0.05,WUHU216HW,2013-06-18 04:06:00,
2013-06-17 23:11:00,68.4,64.0,30.07,SE,135,0.0,0.0,86,0.00,,,0.05,WUHU216HW,2013-06-18 04:11:00,
2013-06-17 23:16:00,68.2,63.9,30.07,SE,135,0.4,1.1,86,0.00,,,0.05,WUHU216HW,2013-06-18 04:16:00,
2013-06-17 23:21:00,68.2,63.9,30.07,SE,135,0.0,1.1,86,0.00,,,0.05,WUHU216HW,2013-06-18 04:21:00,
2013-06-17 23:26:00,68.2,63.9,30.07,SE,135,0.0,0.0,86,0.00,,,0.05,WUHU216HW,2013-06-18 04:26:00,
2013-06-17 23:31:00,68.0,63.7,30.07,SE,135,0.0,0.0,86,0.00,,,0.05,WUHU216HW,2013-06-18 04:31:00,
2013-06-17 23:36:00,68.0,63.7,30.07,SE,135,0.0,0.0,86,0.00,,,0.05,WUHU216HW,2013-06-18 04:36:00,
2013-06-17 23:41:00,67.9,63.6,30.08,SE,135,0.0,0.2,86,0.00,,,0.05,WUHU216HW,2013-06-18 04:41:00,
2013-06-17 23:46:00,67.7,63.6,30.08,SE,135,0.0,0.2,87,0.00,,,0.05,WUHU216HW,2013-06-18 04:46:00,
2013-06-17 23:51:00,67.7,63.6,30.07,SE,135,0.0,0.0,87,0.00,,,0.05,WUHU216HW,2013-06-18 04:51:00,
2013-06-17 23:56:00,67.7,63.6,30.07,SE,135,0.0,0.0,87,0.00,,,0.05,WUHU216HW,2013-06-18 04:56:00,